Skip Navigation Links
NOAA logo - Click to go to the NOAA homepage
NOAA's National Weather Service
Alaska Aviation Weather Unit
  NWS logo - Click to go to the NWS homepage
Left Navbar Graphic     09 AKDT = 17 GMT

   
NOAA is celebrating 200 years of science, service, and stewardship. Visit the NOAA 200th celebration Web site to learn more.
USA.gov is the U.S. Government's official Web portal to all Federal, state and local government Web resources and services.
Facebook
NWS on Facebook

Important Change Regarding the AAWU Web Presence

 

Over the last several months, the AAWU has been working to navigate its webpages to a nationally supported server. Security, as well as other needs, have necessitated the change.  In the process, we have made an effort to enhance the functionality of our website, as well as some of our products. As of June 20, 2017, aawu.arh.noaa.gov will be discontinued. The new AAWU web address is weather.gov/aawu. It is now live and will run in-parallel with the old site until it is discontinued. Please send any feedback or questions regarding the new webpages to nws.ar.aawu.webauthors@noaa.gov.  Thank you for your patience during this time of transition.
AAWU Home :: Display TAF Add Bookmark
SPECI PAPO 271135Z AUTO 15006KT 10SM BKN021 OVC029 01/M01 A2987 RMK AO2
     UPB08E25RAB13E23 P0000 FZRANO=

SPECI PAPO 271151Z AUTO 14007KT 10SM SCT021 SCT031 OVC045 01/M01 A2987
     RMK AO2 UPB08E25B48E50RAB13E23B39E48 P0000 FZRANO=

METAR PAPO 271156Z AUTO 14007KT 10SM SCT023 BKN031 OVC045 01/M01 A2987
     RMK AO2 UPB08E25B48E50RAB13E23B39E48 SLP114 P0000 60000
     T00061011 10028 21006 51002 FZRANO=

SPECI PAPO 271236Z AUTO 15009KT 10SM SCT020 BKN025 OVC045 01/M01
 A2987 RMK AO2 FZRANO=

METAR PAPO 271256Z AUTO 15009KT 10SM FEW020 OVC029 01/M01 A2987 RMK AO2
     SLP114 T00061006 FZRANO=

SPECI PAPO 271305Z AUTO 15009KT 10SM OVC032 01/M01 A2987 RMK AO2
     FZRANO=

SPECI PAPO 271345Z AUTO 15009KT 10SM BKN017 BKN025 OVC032 01/M01 A2987
     RMK AO2 FZRANO=

METAR PAPO 271356Z AUTO 15008KT 10SM SCT017 BKN021 OVC055 01/M01 A2987
     RMK AO2 SLP116 T00061006 FZRANO=

SPECI PAPO 271440Z AUTO 15008KT 10SM BKN010 OVC019 01/M01 A2988 RMK AO2
     FZRANO=

SPECI PAPO 271448Z AUTO 16008KT 10SM BKN008 OVC019 01/M01 A2988 RMK AO2
     FZRANO=

METAR PAPO 271456Z AUTO 15008KT 10SM BKN008 OVC019 01/M01 A2988 RMK
 AO2 SLP117 T00061006 53003 FZRANO=

SPECI PAPO 271516Z AUTO 16009KT 10SM SCT008 OVC021 01/00 A2988 RMK AO2
     FZRANO=

SPECI PAPO 271543Z AUTO 14010KT 10SM BKN006 OVC019 01/00 A2988 RMK AO2
     FZRANO=

METAR PAPO 271556Z AUTO 15009KT 10SM BKN006 BKN019 OVC037 01/00 A2988
     RMK AO2 CIG 004V008 SLP119 T00110000 FZRANO=

SPECI PAPO 271608Z AUTO 15009KT 10SM BKN004 OVC017 01/00 A2989 RMK AO2
     FZRANO=

METAR PAPO 271656Z AUTO 15007KT 10SM OVC004 01/00 A2989 RMK AO2 SLP123
     T00110000 FZRANO=


NOAA's National Weather Service
Alaska Aviation Weather Unit
6930 Sand Lake Road
Anchorage, AK 99502-1845
Disclaimer
Credits
Glossary
Privacy Policy
About Us
Career Opportunities
Contact AAWU Internet Services Site last modified: April, 17th 2012